sensor_id;sensor_type;location;lat;lon;timestamp;temperature;humidity
14709;DHT22;7445;50.774;4.944;2023-03-23T08:47:41;12.30;99.90
14709;DHT22;7445;50.774;4.944;2023-03-23T08:56:10;11.90;99.90
14709;DHT22;7445;50.774;4.944;2023-03-23T08:58:39;11.90;99.90
14709;DHT22;7445;50.774;4.944;2023-03-23T09:01:06;11.90;99.90
14709;DHT22;7445;50.774;4.944;2023-03-23T09:03:33;11.90;99.90
14709;DHT22;7445;50.774;4.944;2023-03-23T09:06:02;12.10;99.90
14709;DHT22;7445;50.774;4.944;2023-03-23T09:08:28;12.20;99.90
14709;DHT22;7445;50.774;4.944;2023-03-23T09:11:02;12.30;99.90
14709;DHT22;7445;50.774;4.944;2023-03-23T09:13:28;12.30;99.90
14709;DHT22;7445;50.774;4.944;2023-03-23T09:15:55;12.20;99.90
14709;DHT22;7445;50.774;4.944;2023-03-23T09:18:21;12.20;99.90
14709;DHT22;7445;50.774;4.944;2023-03-23T09:20:49;12.10;99.90
14709;DHT22;7445;50.774;4.944;2023-03-23T09:23:15;11.90;99.90
14709;DHT22;7445;50.774;4.944;2023-03-23T09:25:41;11.80;99.90
14709;DHT22;7445;50.774;4.944;2023-03-23T09:28:07;11.70;99.90
14709;DHT22;7445;50.774;4.944;2023-03-23T09:30:34;11.70;99.90
14709;DHT22;7445;50.774;4.944;2023-03-23T09:33:02;11.60;99.90
14709;DHT22;7445;50.774;4.944;2023-03-23T09:35:29;11.60;99.90
14709;DHT22;7445;50.774;4.944;2023-03-23T09:37:57;11.70;99.90
14709;DHT22;7445;50.774;4.944;2023-03-23T09:40:51;11.80;99.90
14709;DHT22;7445;50.774;4.944;2023-03-23T09:43:22;12.00;99.90
14709;DHT22;7445;50.774;4.944;2023-03-23T09:45:54;12.10;99.90
14709;DHT22;7445;50.774;4.944;2023-03-23T09:53:50;12.00;99.90
14709;DHT22;7445;50.774;4.944;2023-03-23T09:56:17;12.00;99.90
14709;DHT22;7445;50.774;4.944;2023-03-23T09:58:46;11.90;99.90
14709;DHT22;7445;50.774;4.944;2023-03-23T10:04:19;12.00;99.90
14709;DHT22;7445;50.774;4.944;2023-03-23T10:06:49;12.10;99.90
14709;DHT22;7445;50.774;4.944;2023-03-23T10:09:17;12.10;99.90
14709;DHT22;7445;50.774;4.944;2023-03-23T10:14:22;12.00;99.90
14709;DHT22;7445;50.774;4.944;2023-03-23T10:17:13;11.90;99.90
14709;DHT22;7445;50.774;4.944;2023-03-23T10:23:02;12.10;99.90
14709;DHT22;7445;50.774;4.944;2023-03-23T10:25:34;12.20;99.90
14709;DHT22;7445;50.774;4.944;2023-03-23T10:28:39;12.40;99.90
14709;DHT22;7445;50.774;4.944;2023-03-23T10:31:09;12.50;99.90
14709;DHT22;7445;50.774;4.944;2023-03-23T10:34:01;12.60;99.90
14709;DHT22;7445;50.774;4.944;2023-03-23T10:36:37;12.80;99.90
14709;DHT22;7445;50.774;4.944;2023-03-23T10:39:20;12.70;99.90
14709;DHT22;7445;50.774;4.944;2023-03-23T10:41:46;12.70;99.90
14709;DHT22;7445;50.774;4.944;2023-03-23T10:44:17;12.70;99.90
14709;DHT22;7445;50.774;4.944;2023-03-23T10:49:27;12.80;99.90
14709;DHT22;7445;50.774;4.944;2023-03-23T10:52:35;12.80;99.90
14709;DHT22;7445;50.774;4.944;2023-03-23T10:57:37;12.70;99.90
14709;DHT22;7445;50.774;4.944;2023-03-23T11:00:25;12.80;99.90
14709;DHT22;7445;50.774;4.944;2023-03-23T11:03:00;12.70;99.90
14709;DHT22;7445;50.774;4.944;2023-03-23T11:05:35;12.60;99.90
14709;DHT22;7445;50.774;4.944;2023-03-23T11:08:01;12.60;99.90
14709;DHT22;7445;50.774;4.944;2023-03-23T11:10:38;12.50;99.90
14709;DHT22;7445;50.774;4.944;2023-03-23T11:13:15;12.60;99.90
14709;DHT22;7445;50.774;4.944;2023-03-23T11:15:42;12.90;99.90
14709;DHT22;7445;50.774;4.944;2023-03-23T11:18:17;13.30;99.90
14709;DHT22;7445;50.774;4.944;2023-03-23T11:20:44;13.50;99.90
14709;DHT22;7445;50.774;4.944;2023-03-23T11:23:22;13.70;99.90
14709;DHT22;7445;50.774;4.944;2023-03-23T11:26:13;13.70;99.90
14709;DHT22;7445;50.774;4.944;2023-03-23T11:31:23;13.40;99.90
14709;DHT22;7445;50.774;4.944;2023-03-23T11:36:20;13.50;99.90
14709;DHT22;7445;50.774;4.944;2023-03-23T11:38:51;13.60;99.90
14709;DHT22;7445;50.774;4.944;2023-03-23T11:41:19;13.70;99.90
14709;DHT22;7445;50.774;4.944;2023-03-23T11:43:47;14.00;99.90
14709;DHT22;7445;50.774;4.944;2023-03-23T11:46:44;14.20;99.90
14709;DHT22;7445;50.774;4.944;2023-03-23T11:49:30;14.30;99.90
14709;DHT22;7445;50.774;4.944;2023-03-23T11:52:09;14.40;99.90
14709;DHT22;7445;50.774;4.944;2023-03-23T11:54:42;14.40;99.90
14709;DHT22;7445;50.774;4.944;2023-03-23T11:57:11;14.50;99.90
14709;DHT22;7445;50.774;4.944;2023-03-23T11:59:40;14.50;99.90
14709;DHT22;7445;50.774;4.944;2023-03-23T12:04:52;14.70;99.90
14709;DHT22;7445;50.774;4.944;2023-03-23T12:10:34;15.00;99.90
14709;DHT22;7445;50.774;4.944;2023-03-23T12:18:29;14.00;99.90
14709;DHT22;7445;50.774;4.944;2023-03-23T12:21:18;13.60;99.90
14709;DHT22;7445;50.774;4.944;2023-03-23T12:26:31;14.00;99.90
14709;DHT22;7445;50.774;4.944;2023-03-23T12:37:18;16.00;99.90
14709;DHT22;7445;50.774;4.944;2023-03-23T12:40:16;16.20;99.90
14709;DHT22;7445;50.774;4.944;2023-03-23T12:48:35;16.10;99.90
14709;DHT22;7445;50.774;4.944;2023-03-23T12:51:22;15.80;99.90
14709;DHT22;7445;50.774;4.944;2023-03-23T12:54:03;15.70;99.90
14709;DHT22;7445;50.774;4.944;2023-03-23T12:59:23;15.40;99.90
14709;DHT22;7445;50.774;4.944;2023-03-23T13:02:19;15.20;99.90
14709;DHT22;7445;50.774;4.944;2023-03-23T13:04:49;15.00;99.90
14709;DHT22;7445;50.774;4.944;2023-03-23T13:07:22;14.90;99.90
14709;DHT22;7445;50.774;4.944;2023-03-23T13:10:08;14.70;99.90
14709;DHT22;7445;50.774;4.944;2023-03-23T13:12:37;14.40;99.90
14709;DHT22;7445;50.774;4.944;2023-03-23T13:15:26;14.20;99.90
14709;DHT22;7445;50.774;4.944;2023-03-23T13:18:08;14.00;99.90
14709;DHT22;7445;50.774;4.944;2023-03-23T13:20:55;13.90;99.90
14709;DHT22;7445;50.774;4.944;2023-03-23T13:23:44;13.80;99.90
14709;DHT22;7445;50.774;4.944;2023-03-23T13:26:13;13.80;99.90
14709;DHT22;7445;50.774;4.944;2023-03-23T13:31:28;14.50;99.90
14709;DHT22;7445;50.774;4.944;2023-03-23T13:36:43;15.20;99.90
14709;DHT22;7445;50.774;4.944;2023-03-23T13:39:22;15.40;99.90
14709;DHT22;7445;50.774;4.944;2023-03-23T13:42:19;15.60;99.90
14709;DHT22;7445;50.774;4.944;2023-03-23T13:49:58;15.90;99.90
14709;DHT22;7445;50.774;4.944;2023-03-23T13:52:35;16.00;99.90
14709;DHT22;7445;50.774;4.944;2023-03-23T13:55:21;16.10;99.90
14709;DHT22;7445;50.774;4.944;2023-03-23T13:58:09;15.90;99.90
14709;DHT22;7445;50.774;4.944;2023-03-23T14:00:45;15.70;99.90
14709;DHT22;7445;50.774;4.944;2023-03-23T14:03:13;15.70;99.90
14709;DHT22;7445;50.774;4.944;2023-03-23T14:06:01;15.70;99.90
14709;DHT22;7445;50.774;4.944;2023-03-23T14:11:16;15.40;99.90
14709;DHT22;7445;50.774;4.944;2023-03-23T14:14:04;15.30;99.90
14709;DHT22;7445;50.774;4.944;2023-03-23T14:16:40;15.10;99.90
14709;DHT22;7445;50.774;4.944;2023-03-23T14:19:26;14.90;99.90
14709;DHT22;7445;50.774;4.944;2023-03-23T14:21:59;14.80;99.90
14709;DHT22;7445;50.774;4.944;2023-03-23T14:24:30;14.80;99.90
14709;DHT22;7445;50.774;4.944;2023-03-23T14:27:14;14.80;99.90
14709;DHT22;7445;50.774;4.944;2023-03-23T14:29:41;15.00;99.90
14709;DHT22;7445;50.774;4.944;2023-03-23T14:32:18;15.30;99.90
14709;DHT22;7445;50.774;4.944;2023-03-23T14:34:47;15.30;99.90
14709;DHT22;7445;50.774;4.944;2023-03-23T14:37:15;15.20;99.90
14709;DHT22;7445;50.774;4.944;2023-03-23T14:39:44;15.10;99.90
14709;DHT22;7445;50.774;4.944;2023-03-23T14:42:19;15.10;99.90
14709;DHT22;7445;50.774;4.944;2023-03-23T14:44:48;15.00;99.90
14709;DHT22;7445;50.774;4.944;2023-03-23T14:47:25;14.90;99.90
14709;DHT22;7445;50.774;4.944;2023-03-23T14:50:00;14.80;99.90
14709;DHT22;7445;50.774;4.944;2023-03-23T14:52:28;14.70;99.90
14709;DHT22;7445;50.774;4.944;2023-03-23T14:54:54;14.60;99.90
14709;DHT22;7445;50.774;4.944;2023-03-23T14:57:28;14.50;99.90
14709;DHT22;7445;50.774;4.944;2023-03-23T14:59:55;14.50;99.90
14709;DHT22;7445;50.774;4.944;2023-03-23T15:02:31;14.50;99.90
14709;DHT22;7445;50.774;4.944;2023-03-23T15:05:01;14.50;99.90
14709;DHT22;7445;50.774;4.944;2023-03-23T15:07:33;14.50;99.90
14709;DHT22;7445;50.774;4.944;2023-03-23T15:09:59;14.50;99.90
14709;DHT22;7445;50.774;4.944;2023-03-23T15:12:27;14.60;99.90
14709;DHT22;7445;50.774;4.944;2023-03-23T15:14:59;14.90;99.90
14709;DHT22;7445;50.774;4.944;2023-03-23T15:17:29;15.20;99.90
14709;DHT22;7445;50.774;4.944;2023-03-23T15:19:56;15.60;99.90
14709;DHT22;7445;50.774;4.944;2023-03-23T15:24:53;15.80;99.90
14709;DHT22;7445;50.774;4.944;2023-03-23T15:27:29;15.80;99.90
14709;DHT22;7445;50.774;4.944;2023-03-23T15:30:00;15.80;99.90
14709;DHT22;7445;50.774;4.944;2023-03-23T15:32:42;15.80;99.90
14709;DHT22;7445;50.774;4.944;2023-03-23T15:35:20;15.90;99.90
14709;DHT22;7445;50.774;4.944;2023-03-23T15:37:48;15.90;99.90
14709;DHT22;7445;50.774;4.944;2023-03-23T15:40:23;16.00;99.90
14709;DHT22;7445;50.774;4.944;2023-03-23T15:42:50;15.90;99.90
14709;DHT22;7445;50.774;4.944;2023-03-23T15:45:30;15.70;99.90
14709;DHT22;7445;50.774;4.944;2023-03-23T15:48:04;15.70;99.90
14709;DHT22;7445;50.774;4.944;2023-03-23T15:50:35;15.60;99.90
14709;DHT22;7445;50.774;4.944;2023-03-23T15:53:18;15.60;99.90
14709;DHT22;7445;50.774;4.944;2023-03-23T15:55:44;15.50;99.90
14709;DHT22;7445;50.774;4.944;2023-03-23T15:58:12;15.40;99.90
14709;DHT22;7445;50.774;4.944;2023-03-23T16:00:39;15.30;99.90
14709;DHT22;7445;50.774;4.944;2023-03-23T16:03:07;15.20;99.90
14709;DHT22;7445;50.774;4.944;2023-03-23T16:05:34;15.10;99.90
14709;DHT22;7445;50.774;4.944;2023-03-23T16:08:00;15.10;99.90
14709;DHT22;7445;50.774;4.944;2023-03-23T16:10:27;15.10;99.90
14709;DHT22;7445;50.774;4.944;2023-03-23T16:12:52;15.10;99.90
14709;DHT22;7445;50.774;4.944;2023-03-23T16:15:18;15.10;99.90
14709;DHT22;7445;50.774;4.944;2023-03-23T16:17:44;15.00;99.90
14709;DHT22;7445;50.774;4.944;2023-03-23T16:20:17;15.00;99.90
14709;DHT22;7445;50.774;4.944;2023-03-23T16:22:43;15.00;99.90
14709;DHT22;7445;50.774;4.944;2023-03-23T16:25:10;14.90;99.90
14709;DHT22;7445;50.774;4.944;2023-03-23T16:27:36;14.90;99.90
14709;DHT22;7445;50.774;4.944;2023-03-23T16:30:20;14.80;99.90
14709;DHT22;7445;50.774;4.944;2023-03-23T16:32:46;14.70;99.90
14709;DHT22;7445;50.774;4.944;2023-03-23T16:35:12;14.60;99.90
14709;DHT22;7445;50.774;4.944;2023-03-23T16:37:42;14.60;99.90
14709;DHT22;7445;50.774;4.944;2023-03-23T16:40:11;14.60;99.90
14709;DHT22;7445;50.774;4.944;2023-03-23T16:42:37;14.60;99.90
14709;DHT22;7445;50.774;4.944;2023-03-23T16:45:02;14.50;99.90
14709;DHT22;7445;50.774;4.944;2023-03-23T16:47:28;14.50;99.90
14709;DHT22;7445;50.774;4.944;2023-03-23T16:49:54;14.40;99.90
14709;DHT22;7445;50.774;4.944;2023-03-23T16:52:19;14.40;99.90
14709;DHT22;7445;50.774;4.944;2023-03-23T16:54:45;14.50;99.90
14709;DHT22;7445;50.774;4.944;2023-03-23T16:57:11;14.50;99.90
14709;DHT22;7445;50.774;4.944;2023-03-23T16:59:37;14.50;99.90
14709;DHT22;7445;50.774;4.944;2023-03-23T17:02:02;14.50;99.90
14709;DHT22;7445;50.774;4.944;2023-03-23T17:04:32;14.50;99.90
14709;DHT22;7445;50.774;4.944;2023-03-23T17:06:58;14.60;99.90
14709;DHT22;7445;50.774;4.944;2023-03-23T17:09:25;14.70;99.90
14709;DHT22;7445;50.774;4.944;2023-03-23T17:11:51;14.60;99.90
14709;DHT22;7445;50.774;4.944;2023-03-23T17:14:17;14.60;99.90
14709;DHT22;7445;50.774;4.944;2023-03-23T17:16:43;14.50;99.90
14709;DHT22;7445;50.774;4.944;2023-03-23T17:19:09;14.40;99.90
14709;DHT22;7445;50.774;4.944;2023-03-23T17:21:35;14.40;99.90
14709;DHT22;7445;50.774;4.944;2023-03-23T17:24:02;14.40;99.90
14709;DHT22;7445;50.774;4.944;2023-03-23T17:26:28;14.40;99.90
14709;DHT22;7445;50.774;4.944;2023-03-23T17:28:53;14.30;99.90
14709;DHT22;7445;50.774;4.944;2023-03-23T17:31:19;14.20;99.90
14709;DHT22;7445;50.774;4.944;2023-03-23T17:33:44;14.20;99.90
14709;DHT22;7445;50.774;4.944;2023-03-23T17:36:10;14.20;99.90
14709;DHT22;7445;50.774;4.944;2023-03-23T17:38:36;14.20;99.90
14709;DHT22;7445;50.774;4.944;2023-03-23T17:41:02;14.10;99.90
14709;DHT22;7445;50.774;4.944;2023-03-23T17:43:32;14.10;99.90
14709;DHT22;7445;50.774;4.944;2023-03-23T17:45:59;14.00;99.90
14709;DHT22;7445;50.774;4.944;2023-03-23T17:48:25;14.00;99.90
14709;DHT22;7445;50.774;4.944;2023-03-23T17:50:54;14.00;99.90
14709;DHT22;7445;50.774;4.944;2023-03-23T17:53:22;13.90;99.90
14709;DHT22;7445;50.774;4.944;2023-03-23T17:55:53;13.90;99.90
14709;DHT22;7445;50.774;4.944;2023-03-23T17:58:19;13.90;99.90
14709;DHT22;7445;50.774;4.944;2023-03-23T18:00:44;13.90;99.90
14709;DHT22;7445;50.774;4.944;2023-03-23T18:03:10;13.80;99.90
14709;DHT22;7445;50.774;4.944;2023-03-23T18:05:36;13.80;99.90
14709;DHT22;7445;50.774;4.944;2023-03-23T18:08:07;13.80;99.90
14709;DHT22;7445;50.774;4.944;2023-03-23T18:10:34;13.80;99.90
14709;DHT22;7445;50.774;4.944;2023-03-23T18:13:03;13.80;99.90
14709;DHT22;7445;50.774;4.944;2023-03-23T18:15:30;13.80;99.90
14709;DHT22;7445;50.774;4.944;2023-03-23T18:17:58;13.80;99.90
14709;DHT22;7445;50.774;4.944;2023-03-23T18:20:24;13.80;99.90
14709;DHT22;7445;50.774;4.944;2023-03-23T18:22:49;13.80;99.90
14709;DHT22;7445;50.774;4.944;2023-03-23T18:25:15;13.80;99.90
14709;DHT22;7445;50.774;4.944;2023-03-23T18:27:41;13.80;99.90
14709;DHT22;7445;50.774;4.944;2023-03-23T18:30:08;13.80;99.90
14709;DHT22;7445;50.774;4.944;2023-03-23T18:32:35;13.80;99.90
14709;DHT22;7445;50.774;4.944;2023-03-23T18:35:01;13.70;99.90
14709;DHT22;7445;50.774;4.944;2023-03-23T18:37:28;13.70;99.90
14709;DHT22;7445;50.774;4.944;2023-03-23T18:39:53;13.80;99.90
14709;DHT22;7445;50.774;4.944;2023-03-23T18:42:19;13.80;99.90
14709;DHT22;7445;50.774;4.944;2023-03-23T18:44:45;13.70;99.90
14709;DHT22;7445;50.774;4.944;2023-03-23T18:47:11;13.70;99.90
14709;DHT22;7445;50.774;4.944;2023-03-23T18:49:37;13.70;99.90
14709;DHT22;7445;50.774;4.944;2023-03-23T18:52:03;13.70;99.90
14709;DHT22;7445;50.774;4.944;2023-03-23T18:54:28;13.70;99.90
14709;DHT22;7445;50.774;4.944;2023-03-23T18:56:58;13.70;99.90
14709;DHT22;7445;50.774;4.944;2023-03-23T18:59:25;13.70;99.90
14709;DHT22;7445;50.774;4.944;2023-03-23T19:01:55;13.70;99.90
14709;DHT22;7445;50.774;4.944;2023-03-23T19:04:21;13.70;99.90
14709;DHT22;7445;50.774;4.944;2023-03-23T19:06:48;13.70;99.90
14709;DHT22;7445;50.774;4.944;2023-03-23T19:09:15;13.70;99.90
14709;DHT22;7445;50.774;4.944;2023-03-23T19:11:41;13.70;99.90
14709;DHT22;7445;50.774;4.944;2023-03-23T19:14:07;13.70;99.90
14709;DHT22;7445;50.774;4.944;2023-03-23T19:16:33;13.70;99.90
14709;DHT22;7445;50.774;4.944;2023-03-23T19:19:01;13.60;99.90
14709;DHT22;7445;50.774;4.944;2023-03-23T19:21:27;13.60;99.90
14709;DHT22;7445;50.774;4.944;2023-03-23T19:23:53;13.60;99.90
14709;DHT22;7445;50.774;4.944;2023-03-23T19:26:31;13.60;99.90
14709;DHT22;7445;50.774;4.944;2023-03-23T19:28:57;13.60;99.90
14709;DHT22;7445;50.774;4.944;2023-03-23T19:31:23;13.60;99.90
14709;DHT22;7445;50.774;4.944;2023-03-23T19:33:52;13.60;99.90
14709;DHT22;7445;50.774;4.944;2023-03-23T19:36:19;13.60;99.90
14709;DHT22;7445;50.774;4.944;2023-03-23T19:38:45;13.50;99.90
14709;DHT22;7445;50.774;4.944;2023-03-23T19:41:11;13.50;99.90
14709;DHT22;7445;50.774;4.944;2023-03-23T19:43:36;13.40;99.90
14709;DHT22;7445;50.774;4.944;2023-03-23T19:46:02;13.40;99.90
14709;DHT22;7445;50.774;4.944;2023-03-23T19:48:29;13.40;99.90
14709;DHT22;7445;50.774;4.944;2023-03-23T19:50:55;13.40;99.90
14709;DHT22;7445;50.774;4.944;2023-03-23T19:53:22;13.30;99.90
14709;DHT22;7445;50.774;4.944;2023-03-23T19:55:48;13.30;99.90
14709;DHT22;7445;50.774;4.944;2023-03-23T19:58:14;13.30;99.90
14709;DHT22;7445;50.774;4.944;2023-03-23T20:00:40;13.20;99.90
14709;DHT22;7445;50.774;4.944;2023-03-23T20:03:06;13.20;99.90
14709;DHT22;7445;50.774;4.944;2023-03-23T20:05:35;13.20;99.90
14709;DHT22;7445;50.774;4.944;2023-03-23T20:08:01;13.10;99.90
14709;DHT22;7445;50.774;4.944;2023-03-23T20:10:27;13.10;99.90
14709;DHT22;7445;50.774;4.944;2023-03-23T20:12:54;13.00;99.90
14709;DHT22;7445;50.774;4.944;2023-03-23T20:15:20;13.00;99.90
14709;DHT22;7445;50.774;4.944;2023-03-23T20:17:45;13.00;99.90
14709;DHT22;7445;50.774;4.944;2023-03-23T20:20:12;13.00;99.90
14709;DHT22;7445;50.774;4.944;2023-03-23T20:22:39;12.90;99.90
14709;DHT22;7445;50.774;4.944;2023-03-23T20:25:05;12.90;99.90
14709;DHT22;7445;50.774;4.944;2023-03-23T20:27:33;12.90;99.90
14709;DHT22;7445;50.774;4.944;2023-03-23T20:29:59;12.80;99.90
14709;DHT22;7445;50.774;4.944;2023-03-23T20:32:24;12.80;99.90
14709;DHT22;7445;50.774;4.944;2023-03-23T20:34:50;12.80;99.90
14709;DHT22;7445;50.774;4.944;2023-03-23T20:37:17;12.80;99.90
14709;DHT22;7445;50.774;4.944;2023-03-23T20:39:45;12.70;99.90
14709;DHT22;7445;50.774;4.944;2023-03-23T20:42:12;12.70;99.90
14709;DHT22;7445;50.774;4.944;2023-03-23T20:44:38;12.70;99.90
14709;DHT22;7445;50.774;4.944;2023-03-23T20:47:06;12.60;99.90
14709;DHT22;7445;50.774;4.944;2023-03-23T20:49:35;12.60;99.90
14709;DHT22;7445;50.774;4.944;2023-03-23T20:52:03;12.60;99.90
14709;DHT22;7445;50.774;4.944;2023-03-23T20:54:30;12.50;99.90
14709;DHT22;7445;50.774;4.944;2023-03-23T20:56:56;12.50;99.90
14709;DHT22;7445;50.774;4.944;2023-03-23T20:59:23;12.50;99.90
14709;DHT22;7445;50.774;4.944;2023-03-23T21:01:49;12.40;99.90
14709;DHT22;7445;50.774;4.944;2023-03-23T21:04:17;12.40;99.90
14709;DHT22;7445;50.774;4.944;2023-03-23T21:06:45;12.40;99.90
14709;DHT22;7445;50.774;4.944;2023-03-23T21:09:15;12.30;99.90
14709;DHT22;7445;50.774;4.944;2023-03-23T21:11:42;12.30;99.90
14709;DHT22;7445;50.774;4.944;2023-03-23T21:14:08;12.30;99.90
14709;DHT22;7445;50.774;4.944;2023-03-23T21:16:34;12.30;99.90
14709;DHT22;7445;50.774;4.944;2023-03-23T21:19:02;12.30;99.90
14709;DHT22;7445;50.774;4.944;2023-03-23T21:21:27;12.30;99.90
14709;DHT22;7445;50.774;4.944;2023-03-23T21:23:55;12.20;99.90
14709;DHT22;7445;50.774;4.944;2023-03-23T21:26:25;12.30;99.90
14709;DHT22;7445;50.774;4.944;2023-03-23T21:28:52;12.30;99.90
14709;DHT22;7445;50.774;4.944;2023-03-23T21:31:19;12.20;99.90
14709;DHT22;7445;50.774;4.944;2023-03-23T21:33:47;12.20;99.90
14709;DHT22;7445;50.774;4.944;2023-03-23T21:36:13;12.20;99.90
14709;DHT22;7445;50.774;4.944;2023-03-23T21:38:41;12.20;99.90
14709;DHT22;7445;50.774;4.944;2023-03-23T21:41:10;12.20;99.90
14709;DHT22;7445;50.774;4.944;2023-03-23T21:43:36;12.10;99.90
14709;DHT22;7445;50.774;4.944;2023-03-23T21:46:04;12.10;99.90
14709;DHT22;7445;50.774;4.944;2023-03-23T21:48:31;12.10;99.90
14709;DHT22;7445;50.774;4.944;2023-03-23T21:51:04;12.10;99.90
14709;DHT22;7445;50.774;4.944;2023-03-23T21:53:30;12.10;99.90
14709;DHT22;7445;50.774;4.944;2023-03-23T21:55:58;12.20;99.90
14709;DHT22;7445;50.774;4.944;2023-03-23T21:58:25;12.10;99.90
14709;DHT22;7445;50.774;4.944;2023-03-23T22:00:54;12.10;99.90
14709;DHT22;7445;50.774;4.944;2023-03-23T22:03:23;12.10;99.90
14709;DHT22;7445;50.774;4.944;2023-03-23T22:05:53;12.10;99.90
14709;DHT22;7445;50.774;4.944;2023-03-23T22:08:20;12.10;99.90
14709;DHT22;7445;50.774;4.944;2023-03-23T22:10:47;12.10;99.90
14709;DHT22;7445;50.774;4.944;2023-03-23T22:13:13;12.10;99.90
14709;DHT22;7445;50.774;4.944;2023-03-23T22:15:42;12.10;99.90
14709;DHT22;7445;50.774;4.944;2023-03-23T22:18:09;12.10;99.90
14709;DHT22;7445;50.774;4.944;2023-03-23T22:20:35;12.10;99.90
14709;DHT22;7445;50.774;4.944;2023-03-23T22:23:01;12.10;99.90
14709;DHT22;7445;50.774;4.944;2023-03-23T22:25:27;12.10;99.90
14709;DHT22;7445;50.774;4.944;2023-03-23T22:27:52;12.10;99.90
14709;DHT22;7445;50.774;4.944;2023-03-23T22:30:19;12.10;99.90
14709;DHT22;7445;50.774;4.944;2023-03-23T22:32:45;12.10;99.90
14709;DHT22;7445;50.774;4.944;2023-03-23T22:35:11;12.10;99.90
14709;DHT22;7445;50.774;4.944;2023-03-23T22:37:37;12.10;99.90
14709;DHT22;7445;50.774;4.944;2023-03-23T22:40:03;12.10;99.90
14709;DHT22;7445;50.774;4.944;2023-03-23T22:42:31;12.10;99.90
14709;DHT22;7445;50.774;4.944;2023-03-23T22:44:57;12.10;99.90
14709;DHT22;7445;50.774;4.944;2023-03-23T22:47:24;12.10;99.90
14709;DHT22;7445;50.774;4.944;2023-03-23T22:49:49;12.10;99.90
14709;DHT22;7445;50.774;4.944;2023-03-23T22:52:15;12.10;99.90
14709;DHT22;7445;50.774;4.944;2023-03-23T22:54:41;12.20;99.90
14709;DHT22;7445;50.774;4.944;2023-03-23T22:57:07;12.20;99.90
14709;DHT22;7445;50.774;4.944;2023-03-23T22:59:36;12.20;99.90
14709;DHT22;7445;50.774;4.944;2023-03-23T23:02:01;12.20;99.90
14709;DHT22;7445;50.774;4.944;2023-03-23T23:04:27;12.20;99.90
14709;DHT22;7445;50.774;4.944;2023-03-23T23:06:53;12.20;99.90
14709;DHT22;7445;50.774;4.944;2023-03-23T23:09:22;12.20;99.90
14709;DHT22;7445;50.774;4.944;2023-03-23T23:11:47;12.20;99.90
14709;DHT22;7445;50.774;4.944;2023-03-23T23:14:14;12.20;99.90
14709;DHT22;7445;50.774;4.944;2023-03-23T23:16:40;12.20;99.90
14709;DHT22;7445;50.774;4.944;2023-03-23T23:19:06;12.30;99.90
14709;DHT22;7445;50.774;4.944;2023-03-23T23:21:37;12.30;99.90
14709;DHT22;7445;50.774;4.944;2023-03-23T23:24:03;12.30;99.90
14709;DHT22;7445;50.774;4.944;2023-03-23T23:26:29;12.30;99.90
14709;DHT22;7445;50.774;4.944;2023-03-23T23:28:56;12.30;99.90
14709;DHT22;7445;50.774;4.944;2023-03-23T23:31:30;12.40;99.90
14709;DHT22;7445;50.774;4.944;2023-03-23T23:34:02;12.40;99.90
14709;DHT22;7445;50.774;4.944;2023-03-23T23:36:29;12.30;99.90
14709;DHT22;7445;50.774;4.944;2023-03-23T23:38:58;12.40;99.90
14709;DHT22;7445;50.774;4.944;2023-03-23T23:41:30;12.30;99.90
14709;DHT22;7445;50.774;4.944;2023-03-23T23:44:15;12.30;99.90
14709;DHT22;7445;50.774;4.944;2023-03-23T23:46:55;12.30;99.90
14709;DHT22;7445;50.774;4.944;2023-03-23T23:49:26;12.30;99.90
14709;DHT22;7445;50.774;4.944;2023-03-23T23:51:54;12.30;99.90
14709;DHT22;7445;50.774;4.944;2023-03-23T23:54:35;12.30;99.90
14709;DHT22;7445;50.774;4.944;2023-03-23T23:57:05;12.30;99.90
14709;DHT22;7445;50.774;4.944;2023-03-23T23:59:49;12.20;99.90
